sensor_id;sensor_type;location;lat;lon;timestamp;pressure;altitude;pressure_sealevel;temperature;humidity
80482;BME280;69797;43.864;21.410;2024-01-25T00:01:50;100756.38;;;7.16;65.20
80482;BME280;69797;43.864;21.410;2024-01-25T00:04:17;100739.13;;;7.38;64.92
80482;BME280;69797;43.864;21.410;2024-01-25T00:06:44;100697.69;;;7.28;64.12
80482;BME280;69797;43.864;21.410;2024-01-25T00:09:11;100708.19;;;7.16;64.34
80482;BME280;69797;43.864;21.410;2024-01-25T00:11:38;100715.13;;;7.04;64.37
80482;BME280;69797;43.864;21.410;2024-01-25T00:14:05;100740.50;;;7.19;63.64
80482;BME280;69797;43.864;21.410;2024-01-25T00:16:31;100720.31;;;6.99;62.73
80482;BME280;69797;43.864;21.410;2024-01-25T00:18:58;100726.03;;;7.04;64.80
80482;BME280;69797;43.864;21.410;2024-01-25T00:21:25;100727.53;;;7.07;63.98
80482;BME280;69797;43.864;21.410;2024-01-25T00:23:52;100718.50;;;6.91;64.42
80482;BME280;69797;43.864;21.410;2024-01-25T00:26:19;100747.91;;;6.96;64.74
80482;BME280;69797;43.864;21.410;2024-01-25T00:28:46;100759.91;;;7.02;65.28
80482;BME280;69797;43.864;21.410;2024-01-25T00:31:13;100743.19;;;6.90;64.05
80482;BME280;69797;43.864;21.410;2024-01-25T00:33:39;100747.09;;;6.72;65.14
80482;BME280;69797;43.864;21.410;2024-01-25T00:36:07;100758.97;;;6.57;66.62
80482;BME280;69797;43.864;21.410;2024-01-25T00:38:34;100761.44;;;6.20;67.80
80482;BME280;69797;43.864;21.410;2024-01-25T00:41:01;100756.22;;;6.11;67.87
80482;BME280;69797;43.864;21.410;2024-01-25T00:43:28;100736.69;;;6.07;68.32
80482;BME280;69797;43.864;21.410;2024-01-25T00:45:55;100739.69;;;6.12;67.93
80482;BME280;69797;43.864;21.410;2024-01-25T00:48:23;100721.66;;;5.88;68.78
80482;BME280;69797;43.864;21.410;2024-01-25T00:50:50;100724.94;;;5.75;69.72
80482;BME280;69797;43.864;21.410;2024-01-25T00:53:17;100741.31;;;5.90;70.48
80482;BME280;69797;43.864;21.410;2024-01-25T00:55:44;100729.13;;;5.86;70.19
80482;BME280;69797;43.864;21.410;2024-01-25T00:58:11;100754.19;;;6.05;69.09
80482;BME280;69797;43.864;21.410;2024-01-25T01:00:38;100754.75;;;6.23;69.39
80482;BME280;69797;43.864;21.410;2024-01-25T01:03:05;100745.63;;;6.16;68.35
80482;BME280;69797;43.864;21.410;2024-01-25T01:05:32;100744.91;;;5.99;68.46
80482;BME280;69797;43.864;21.410;2024-01-25T01:08:00;100764.09;;;5.97;68.96
80482;BME280;69797;43.864;21.410;2024-01-25T01:10:26;100725.28;;;5.72;68.40
80482;BME280;69797;43.864;21.410;2024-01-25T01:12:54;100753.28;;;5.81;69.24
80482;BME280;69797;43.864;21.410;2024-01-25T01:15:21;100765.47;;;5.93;69.79
80482;BME280;69797;43.864;21.410;2024-01-25T01:17:47;100755.28;;;5.95;69.47
80482;BME280;69797;43.864;21.410;2024-01-25T01:20:14;100752.03;;;6.00;68.83
80482;BME280;69797;43.864;21.410;2024-01-25T01:22:41;100749.69;;;5.89;69.24
80482;BME280;69797;43.864;21.410;2024-01-25T01:25:08;100750.53;;;5.89;69.76
80482;BME280;69797;43.864;21.410;2024-01-25T01:27:35;100775.44;;;6.09;69.88
80482;BME280;69797;43.864;21.410;2024-01-25T01:30:02;100771.81;;;6.17;69.77
80482;BME280;69797;43.864;21.410;2024-01-25T01:32:29;100761.66;;;6.11;68.72
80482;BME280;69797;43.864;21.410;2024-01-25T01:34:56;100794.38;;;6.25;68.95
80482;BME280;69797;43.864;21.410;2024-01-25T01:37:23;100789.25;;;6.31;68.69
80482;BME280;69797;43.864;21.410;2024-01-25T01:39:50;100807.78;;;6.58;70.02
80482;BME280;69797;43.864;21.410;2024-01-25T01:42:17;100800.47;;;6.82;69.48
80482;BME280;69797;43.864;21.410;2024-01-25T01:44:45;100780.34;;;6.83;68.65
80482;BME280;69797;43.864;21.410;2024-01-25T01:47:11;100799.00;;;7.09;67.70
80482;BME280;69797;43.864;21.410;2024-01-25T01:49:38;100795.47;;;7.23;69.66
80482;BME280;69797;43.864;21.410;2024-01-25T01:52:06;100768.31;;;7.15;69.09
80482;BME280;69797;43.864;21.410;2024-01-25T01:54:33;100777.28;;;7.24;68.42
80482;BME280;69797;43.864;21.410;2024-01-25T01:57:01;100780.06;;;7.30;69.59
80482;BME280;69797;43.864;21.410;2024-01-25T01:59:28;100745.78;;;7.21;69.59
80482;BME280;69797;43.864;21.410;2024-01-25T02:01:56;100748.97;;;7.39;69.19
80482;BME280;69797;43.864;21.410;2024-01-25T02:04:23;100703.13;;;7.28;69.12
80482;BME280;69797;43.864;21.410;2024-01-25T02:06:50;100720.03;;;7.38;69.67
80482;BME280;69797;43.864;21.410;2024-01-25T02:09:17;100729.53;;;7.42;69.15
80482;BME280;69797;43.864;21.410;2024-01-25T02:11:43;100697.09;;;7.33;69.42
80482;BME280;69797;43.864;21.410;2024-01-25T02:14:10;100685.53;;;7.16;70.08
80482;BME280;69797;43.864;21.410;2024-01-25T02:16:38;100656.88;;;6.90;70.10
80482;BME280;69797;43.864;21.410;2024-01-25T02:19:05;100659.78;;;6.74;70.73
80482;BME280;69797;43.864;21.410;2024-01-25T02:21:32;100704.66;;;6.78;69.82
80482;BME280;69797;43.864;21.410;2024-01-25T02:23:59;100733.91;;;6.61;71.24
80482;BME280;69797;43.864;21.410;2024-01-25T02:26:26;100718.13;;;6.34;71.75
80482;BME280;69797;43.864;21.410;2024-01-25T02:28:53;100692.38;;;5.98;73.12
80482;BME280;69797;43.864;21.410;2024-01-25T02:31:21;100661.81;;;5.57;75.90
80482;BME280;69797;43.864;21.410;2024-01-25T02:33:48;100688.06;;;5.42;75.34
80482;BME280;69797;43.864;21.410;2024-01-25T02:36:15;100664.53;;;5.18;75.90
80482;BME280;69797;43.864;21.410;2024-01-25T02:38:42;100673.53;;;5.18;77.22
80482;BME280;69797;43.864;21.410;2024-01-25T02:41:08;100676.91;;;5.28;76.55
80482;BME280;69797;43.864;21.410;2024-01-25T02:43:35;100668.94;;;5.27;76.65
80482;BME280;69797;43.864;21.410;2024-01-25T02:46:02;100687.28;;;5.64;75.34
80482;BME280;69797;43.864;21.410;2024-01-25T02:48:29;100635.91;;;5.46;75.18
80482;BME280;69797;43.864;21.410;2024-01-25T02:50:56;100657.91;;;5.60;73.66
80482;BME280;69797;43.864;21.410;2024-01-25T02:53:23;100666.47;;;5.48;73.86
80482;BME280;69797;43.864;21.410;2024-01-25T02:55:49;100666.47;;;5.48;75.04
80482;BME280;69797;43.864;21.410;2024-01-25T02:58:16;100626.38;;;5.11;73.81
80482;BME280;69797;43.864;21.410;2024-01-25T03:00:43;100640.44;;;5.15;75.13
80482;BME280;69797;43.864;21.410;2024-01-25T03:03:10;100662.28;;;5.29;74.17
80482;BME280;69797;43.864;21.410;2024-01-25T03:05:37;100663.69;;;5.17;74.34
80482;BME280;69797;43.864;21.410;2024-01-25T03:08:04;100679.16;;;5.17;74.78
80482;BME280;69797;43.864;21.410;2024-01-25T03:10:31;100666.31;;;5.02;75.25
80482;BME280;69797;43.864;21.410;2024-01-25T03:12:58;100650.75;;;4.80;75.15
80482;BME280;69797;43.864;21.410;2024-01-25T03:15:25;100659.94;;;4.71;74.68
80482;BME280;69797;43.864;21.410;2024-01-25T03:17:52;100675.88;;;4.74;74.70
80482;BME280;69797;43.864;21.410;2024-01-25T03:20:19;100686.38;;;4.69;75.07
80482;BME280;69797;43.864;21.410;2024-01-25T03:22:45;100665.53;;;4.69;75.36
80482;BME280;69797;43.864;21.410;2024-01-25T03:25:12;100663.84;;;4.76;75.01
80482;BME280;69797;43.864;21.410;2024-01-25T03:27:39;100665.34;;;4.87;75.81
80482;BME280;69797;43.864;21.410;2024-01-25T03:30:06;100641.22;;;4.92;75.04
80482;BME280;69797;43.864;21.410;2024-01-25T03:32:33;100645.63;;;4.93;73.53
80482;BME280;69797;43.864;21.410;2024-01-25T03:35:00;100644.97;;;4.91;73.88
80482;BME280;69797;43.864;21.410;2024-01-25T03:37:28;100657.28;;;5.10;74.41
80482;BME280;69797;43.864;21.410;2024-01-25T03:39:54;100665.38;;;5.18;73.06
80482;BME280;69797;43.864;21.410;2024-01-25T03:42:21;100643.34;;;5.13;73.17
80482;BME280;69797;43.864;21.410;2024-01-25T03:44:48;100673.94;;;5.46;73.48
80482;BME280;69797;43.864;21.410;2024-01-25T03:47:16;100646.41;;;5.49;73.89
80482;BME280;69797;43.864;21.410;2024-01-25T03:49:42;100652.06;;;5.71;72.26
80482;BME280;69797;43.864;21.410;2024-01-25T03:52:09;100653.47;;;5.67;72.67
80482;BME280;69797;43.864;21.410;2024-01-25T03:54:36;100657.22;;;5.58;73.07
80482;BME280;69797;43.864;21.410;2024-01-25T03:57:04;100663.03;;;5.54;74.48
80482;BME280;69797;43.864;21.410;2024-01-25T03:59:31;100622.88;;;5.34;74.96
80482;BME280;69797;43.864;21.410;2024-01-25T04:01:58;100655.31;;;5.35;73.79
80482;BME280;69797;43.864;21.410;2024-01-25T04:04:25;100651.31;;;5.15;74.57
80482;BME280;69797;43.864;21.410;2024-01-25T04:06:52;100652.03;;;5.00;74.88
80482;BME280;69797;43.864;21.410;2024-01-25T04:09:19;100622.75;;;4.79;75.63
80482;BME280;69797;43.864;21.410;2024-01-25T04:11:46;100621.41;;;4.75;76.44
80482;BME280;69797;43.864;21.410;2024-01-25T04:14:13;100640.56;;;4.82;76.71
80482;BME280;69797;43.864;21.410;2024-01-25T04:16:39;100645.13;;;4.90;77.24
80482;BME280;69797;43.864;21.410;2024-01-25T04:19:07;100648.31;;;5.01;77.38
80482;BME280;69797;43.864;21.410;2024-01-25T04:21:37;100643.22;;;5.07;77.31
80482;BME280;69797;43.864;21.410;2024-01-25T04:24:04;100622.03;;;5.02;76.79
80482;BME280;69797;43.864;21.410;2024-01-25T04:26:31;100636.06;;;5.14;76.35
80482;BME280;69797;43.864;21.410;2024-01-25T04:28:57;100652.63;;;5.27;76.80
80482;BME280;69797;43.864;21.410;2024-01-25T04:31:24;100633.59;;;5.35;75.92
80482;BME280;69797;43.864;21.410;2024-01-25T04:33:51;100658.81;;;5.52;75.29
80482;BME280;69797;43.864;21.410;2024-01-25T04:36:18;100656.94;;;5.52;75.41
80482;BME280;69797;43.864;21.410;2024-01-25T04:38:45;100628.69;;;5.22;75.45
80482;BME280;69797;43.864;21.410;2024-01-25T04:41:12;100621.69;;;4.97;76.37
80482;BME280;69797;43.864;21.410;2024-01-25T04:43:39;100640.41;;;4.84;77.60
80482;BME280;69797;43.864;21.410;2024-01-25T04:46:06;100638.19;;;4.79;76.93
80482;BME280;69797;43.864;21.410;2024-01-25T04:48:34;100660.91;;;4.94;77.83
80482;BME280;69797;43.864;21.410;2024-01-25T04:51:01;100677.13;;;5.11;77.75
80482;BME280;69797;43.864;21.410;2024-01-25T04:53:28;100646.47;;;4.94;77.11
80482;BME280;69797;43.864;21.410;2024-01-25T04:55:54;100643.94;;;4.92;78.21
80482;BME280;69797;43.864;21.410;2024-01-25T04:58:22;100642.91;;;5.01;77.35
80482;BME280;69797;43.864;21.410;2024-01-25T05:00:49;100668.28;;;5.17;77.54
80482;BME280;69797;43.864;21.410;2024-01-25T05:03:18;100656.00;;;5.29;77.90
80482;BME280;69797;43.864;21.410;2024-01-25T05:05:46;100666.22;;;5.58;77.56
80482;BME280;69797;43.864;21.410;2024-01-25T05:08:13;100636.66;;;5.63;76.14
80482;BME280;69797;43.864;21.410;2024-01-25T05:10:40;100648.66;;;5.77;75.63
80482;BME280;69797;43.864;21.410;2024-01-25T05:13:08;100666.19;;;5.97;75.76
80482;BME280;69797;43.864;21.410;2024-01-25T05:15:36;100644.16;;;5.92;75.35
80482;BME280;69797;43.864;21.410;2024-01-25T05:18:03;100666.31;;;6.04;75.41
80482;BME280;69797;43.864;21.410;2024-01-25T05:20:30;100647.34;;;5.96;75.32
80482;BME280;69797;43.864;21.410;2024-01-25T05:23:04;100663.72;;;6.11;75.59
80482;BME280;69797;43.864;21.410;2024-01-25T05:25:31;100666.94;;;6.14;75.55
80482;BME280;69797;43.864;21.410;2024-01-25T05:27:59;100659.44;;;6.16;75.24
80482;BME280;69797;43.864;21.410;2024-01-25T05:30:27;100642.44;;;6.14;74.91
80482;BME280;69797;43.864;21.410;2024-01-25T05:32:53;100655.25;;;6.29;74.21
80482;BME280;69797;43.864;21.410;2024-01-25T05:35:22;100642.25;;;6.16;74.02
80482;BME280;69797;43.864;21.410;2024-01-25T05:37:50;100665.09;;;6.30;74.62
80482;BME280;69797;43.864;21.410;2024-01-25T05:40:18;100638.03;;;6.13;74.19
80482;BME280;69797;43.864;21.410;2024-01-25T05:42:45;100665.72;;;6.17;74.73
80482;BME280;69797;43.864;21.410;2024-01-25T05:45:12;100667.22;;;6.19;74.37
80482;BME280;69797;43.864;21.410;2024-01-25T05:47:39;100670.97;;;6.18;74.28
80482;BME280;69797;43.864;21.410;2024-01-25T05:50:06;100676.63;;;6.17;73.89
80482;BME280;69797;43.864;21.410;2024-01-25T05:52:33;100658.34;;;6.03;74.76
80482;BME280;69797;43.864;21.410;2024-01-25T05:55:06;100668.19;;;6.04;74.52
80482;BME280;69797;43.864;21.410;2024-01-25T05:57:37;100661.91;;;6.03;74.79
80482;BME280;69797;43.864;21.410;2024-01-25T06:00:05;100661.78;;;5.96;74.93
80482;BME280;69797;43.864;21.410;2024-01-25T06:02:32;100641.47;;;5.84;74.81
80482;BME280;69797;43.864;21.410;2024-01-25T06:05:00;100622.53;;;5.68;75.31
80482;BME280;69797;43.864;21.410;2024-01-25T06:07:27;100620.59;;;5.76;74.74
80482;BME280;69797;43.864;21.410;2024-01-25T06:09:54;100642.94;;;5.87;75.80
80482;BME280;69797;43.864;21.410;2024-01-25T06:12:21;100647.19;;;5.89;76.10
80482;BME280;69797;43.864;21.410;2024-01-25T06:14:48;100604.41;;;5.60;75.58
80482;BME280;69797;43.864;21.410;2024-01-25T06:17:15;100645.00;;;5.93;75.48
80482;BME280;69797;43.864;21.410;2024-01-25T06:19:42;100657.31;;;6.04;76.14
80482;BME280;69797;43.864;21.410;2024-01-25T06:22:09;100642.41;;;5.99;75.74
80482;BME280;69797;43.864;21.410;2024-01-25T06:24:36;100623.97;;;6.10;75.71
80482;BME280;69797;43.864;21.410;2024-01-25T06:27:03;100646.03;;;6.53;74.56
80482;BME280;69797;43.864;21.410;2024-01-25T06:29:29;100613.28;;;6.76;74.94
80482;BME280;69797;43.864;21.410;2024-01-25T06:31:56;100640.13;;;7.53;73.23
80482;BME280;69797;43.864;21.410;2024-01-25T06:34:23;100619.00;;;7.76;72.55
80482;BME280;69797;43.864;21.410;2024-01-25T06:36:50;100619.00;;;8.19;70.71
80482;BME280;69797;43.864;21.410;2024-01-25T06:39:17;100637.34;;;8.75;68.27
80482;BME280;69797;43.864;21.410;2024-01-25T06:41:44;100641.66;;;9.25;67.92
80482;BME280;69797;43.864;21.410;2024-01-25T06:44:11;100654.50;;;9.79;66.60
80482;BME280;69797;43.864;21.410;2024-01-25T06:46:37;100637.03;;;9.87;66.27
80482;BME280;69797;43.864;21.410;2024-01-25T06:49:04;100657.72;;;10.09;63.55
80482;BME280;69797;43.864;21.410;2024-01-25T06:51:31;100621.56;;;10.41;62.98
80482;BME280;69797;43.864;21.410;2024-01-25T06:53:59;100614.81;;;10.63;63.09
80482;BME280;69797;43.864;21.410;2024-01-25T06:56:26;100609.06;;;10.98;63.52
80482;BME280;69797;43.864;21.410;2024-01-25T06:58:53;100596.97;;;11.70;61.79
80482;BME280;69797;43.864;21.410;2024-01-25T07:01:23;100622.06;;;12.19;60.38
80482;BME280;69797;43.864;21.410;2024-01-25T07:03:50;100617.38;;;12.51;58.39
80482;BME280;69797;43.864;21.410;2024-01-25T07:06:19;100641.91;;;12.96;59.34
80482;BME280;69797;43.864;21.410;2024-01-25T07:08:46;100652.69;;;13.41;58.81
80482;BME280;69797;43.864;21.410;2024-01-25T07:11:13;100659.75;;;13.67;59.20
80482;BME280;69797;43.864;21.410;2024-01-25T07:13:43;100637.34;;;13.63;56.98
80482;BME280;69797;43.864;21.410;2024-01-25T07:16:09;100662.22;;;13.57;55.89
80482;BME280;69797;43.864;21.410;2024-01-25T07:18:36;100633.34;;;12.86;58.87
80482;BME280;69797;43.864;21.410;2024-01-25T07:21:03;100645.94;;;12.50;57.94
80482;BME280;69797;43.864;21.410;2024-01-25T07:23:33;100643.22;;;12.93;59.46
80482;BME280;69797;43.864;21.410;2024-01-25T07:26:00;100643.66;;;13.52;55.36
80482;BME280;69797;43.864;21.410;2024-01-25T07:28:27;100628.00;;;13.83;57.83
80482;BME280;69797;43.864;21.410;2024-01-25T07:30:54;100638.91;;;14.50;56.26
80482;BME280;69797;43.864;21.410;2024-01-25T07:33:21;100636.97;;;15.44;53.41
80482;BME280;69797;43.864;21.410;2024-01-25T07:35:48;100621.56;;;16.00;56.11
80482;BME280;69797;43.864;21.410;2024-01-25T07:38:15;100626.50;;;16.61;54.58
80482;BME280;69797;43.864;21.410;2024-01-25T07:40:42;100651.84;;;17.42;56.35
80482;BME280;69797;43.864;21.410;2024-01-25T07:43:09;100663.72;;;18.03;54.98
80482;BME280;69797;43.864;21.410;2024-01-25T07:45:36;100658.16;;;18.57;51.63
80482;BME280;69797;43.864;21.410;2024-01-25T07:48:03;100637.72;;;19.01;48.98
80482;BME280;69797;43.864;21.410;2024-01-25T07:50:40;100637.19;;;19.04;56.18
80482;BME280;69797;43.864;21.410;2024-01-25T07:53:07;100638.47;;;19.33;52.12
80482;BME280;69797;43.864;21.410;2024-01-25T07:55:34;100640.38;;;19.75;53.23
80482;BME280;69797;43.864;21.410;2024-01-25T07:58:01;100645.53;;;20.29;45.24
80482;BME280;69797;43.864;21.410;2024-01-25T08:00:28;100640.03;;;20.60;49.39
80482;BME280;69797;43.864;21.410;2024-01-25T08:02:55;100627.22;;;20.79;51.47
80482;BME280;69797;43.864;21.410;2024-01-25T08:05:22;100659.47;;;21.21;45.92
80482;BME280;69797;43.864;21.410;2024-01-25T08:07:59;100641.28;;;21.54;47.00
80482;BME280;69797;43.864;21.410;2024-01-25T08:10:26;100637.47;;;22.00;48.59
80482;BME280;69797;43.864;21.410;2024-01-25T08:12:53;100654.03;;;22.36;38.27
80482;BME280;69797;43.864;21.410;2024-01-25T08:15:31;100647.94;;;22.23;44.14
80482;BME280;69797;43.864;21.410;2024-01-25T08:17:58;100642.16;;;22.15;39.64
80482;BME280;69797;43.864;21.410;2024-01-25T08:20:26;100619.13;;;21.84;46.62
80482;BME280;69797;43.864;21.410;2024-01-25T08:22:53;100639.38;;;21.50;46.54
80482;BME280;69797;43.864;21.410;2024-01-25T08:25:19;100654.22;;;20.99;43.52
80482;BME280;69797;43.864;21.410;2024-01-25T08:27:47;100653.28;;;20.22;38.96
80482;BME280;69797;43.864;21.410;2024-01-25T08:30:14;100657.41;;;19.41;43.59
80482;BME280;69797;43.864;21.410;2024-01-25T08:32:40;100671.53;;;18.65;42.38
80482;BME280;69797;43.864;21.410;2024-01-25T08:35:08;100643.31;;;17.87;47.06
80482;BME280;69797;43.864;21.410;2024-01-25T08:37:35;100661.69;;;17.55;42.87
80482;BME280;69797;43.864;21.410;2024-01-25T08:40:05;100666.66;;;17.14;44.42
80482;BME280;69797;43.864;21.410;2024-01-25T08:42:36;100642.09;;;16.67;45.82
80482;BME280;69797;43.864;21.410;2024-01-25T08:45:03;100661.16;;;16.35;45.60
80482;BME280;69797;43.864;21.410;2024-01-25T08:47:31;100675.69;;;16.13;44.47
80482;BME280;69797;43.864;21.410;2024-01-25T08:49:58;100646.91;;;15.69;45.74
80482;BME280;69797;43.864;21.410;2024-01-25T08:52:25;100668.16;;;15.56;47.45
80482;BME280;69797;43.864;21.410;2024-01-25T08:54:52;100646.13;;;15.33;46.21
80482;BME280;69797;43.864;21.410;2024-01-25T08:57:19;100675.16;;;15.35;47.22
80482;BME280;69797;43.864;21.410;2024-01-25T08:59:45;100669.53;;;15.19;58.30
80482;BME280;69797;43.864;21.410;2024-01-25T09:02:12;100665.03;;;15.53;48.78
80482;BME280;69797;43.864;21.410;2024-01-25T09:04:40;100665.66;;;15.43;47.12
80482;BME280;69797;43.864;21.410;2024-01-25T09:07:11;100664.22;;;15.29;47.76
80482;BME280;69797;43.864;21.410;2024-01-25T09:09:38;100654.41;;;15.09;47.74
80482;BME280;69797;43.864;21.410;2024-01-25T09:12:06;100652.75;;;15.08;47.62
80482;BME280;69797;43.864;21.410;2024-01-25T09:14:34;100684.88;;;15.26;50.18
80482;BME280;69797;43.864;21.410;2024-01-25T09:17:03;100656.91;;;15.11;48.26
80482;BME280;69797;43.864;21.410;2024-01-25T09:19:30;100680.69;;;15.24;48.40
80482;BME280;69797;43.864;21.410;2024-01-25T09:21:57;100643.50;;;14.91;47.29
80482;BME280;69797;43.864;21.410;2024-01-25T09:24:28;100667.25;;;14.92;48.47
80482;BME280;69797;43.864;21.410;2024-01-25T09:26:55;100657.88;;;14.81;49.14
80482;BME280;69797;43.864;21.410;2024-01-25T09:29:22;100636.66;;;14.58;50.97
80482;BME280;69797;43.864;21.410;2024-01-25T09:31:49;100654.44;;;14.44;49.96
80482;BME280;69797;43.864;21.410;2024-01-25T09:34:16;100668.06;;;14.39;49.83
80482;BME280;69797;43.864;21.410;2024-01-25T09:36:45;100666.13;;;14.28;49.90
80482;BME280;69797;43.864;21.410;2024-01-25T09:39:12;100678.03;;;14.10;50.80
80482;BME280;69797;43.864;21.410;2024-01-25T09:41:41;100665.03;;;13.87;51.88
80482;BME280;69797;43.864;21.410;2024-01-25T09:44:11;100678.03;;;13.80;51.12
80482;BME280;69797;43.864;21.410;2024-01-25T09:46:39;100687.59;;;13.77;51.10
80482;BME280;69797;43.864;21.410;2024-01-25T09:49:08;100664.38;;;13.55;52.11
80482;BME280;69797;43.864;21.410;2024-01-25T09:51:38;100668.41;;;13.52;55.94
80482;BME280;69797;43.864;21.410;2024-01-25T09:54:07;100653.50;;;13.41;51.91
80482;BME280;69797;43.864;21.410;2024-01-25T09:56:34;100685.63;;;13.48;55.73
80482;BME280;69797;43.864;21.410;2024-01-25T09:59:02;100685.25;;;13.44;52.45
80482;BME280;69797;43.864;21.410;2024-01-25T10:01:30;100678.13;;;13.36;51.23
80482;BME280;69797;43.864;21.410;2024-01-25T10:03:57;100657.75;;;13.01;50.78
80482;BME280;69797;43.864;21.410;2024-01-25T10:06:24;100664.56;;;12.91;51.66
80482;BME280;69797;43.864;21.410;2024-01-25T10:08:52;100679.78;;;12.94;53.41
80482;BME280;69797;43.864;21.410;2024-01-25T10:11:19;100675.97;;;12.95;51.97
80482;BME280;69797;43.864;21.410;2024-01-25T10:13:48;100664.38;;;12.93;52.37
80482;BME280;69797;43.864;21.410;2024-01-25T10:16:18;100665.69;;;13.09;52.97
80482;BME280;69797;43.864;21.410;2024-01-25T10:18:47;100666.28;;;13.11;50.90
80482;BME280;69797;43.864;21.410;2024-01-25T10:21:15;100656.22;;;13.05;53.09
80482;BME280;69797;43.864;21.410;2024-01-25T10:23:45;100652.44;;;12.99;52.72
80482;BME280;69797;43.864;21.410;2024-01-25T10:26:13;100639.38;;;12.94;52.78
80482;BME280;69797;43.864;21.410;2024-01-25T10:28:41;100647.56;;;13.01;51.29
80482;BME280;69797;43.864;21.410;2024-01-25T10:31:08;100643.03;;;12.88;52.63
80482;BME280;69797;43.864;21.410;2024-01-25T10:33:38;100628.81;;;12.73;52.64
80482;BME280;69797;43.864;21.410;2024-01-25T10:36:08;100632.84;;;12.70;54.87
80482;BME280;69797;43.864;21.410;2024-01-25T10:38:36;100643.56;;;12.79;53.72
80482;BME280;69797;43.864;21.410;2024-01-25T10:41:05;100627.19;;;12.65;53.37
80482;BME280;69797;43.864;21.410;2024-01-25T10:43:32;100602.78;;;12.51;53.86
80482;BME280;69797;43.864;21.410;2024-01-25T10:46:00;100627.34;;;12.70;53.14
80482;BME280;69797;43.864;21.410;2024-01-25T10:48:30;100622.63;;;12.78;52.94
80482;BME280;69797;43.864;21.410;2024-01-25T10:50:58;100624.09;;;12.80;54.70
80482;BME280;69797;43.864;21.410;2024-01-25T10:53:32;100616.22;;;12.84;53.53
80482;BME280;69797;43.864;21.410;2024-01-25T10:55:59;100606.31;;;12.83;52.61
80482;BME280;69797;43.864;21.410;2024-01-25T10:58:33;100605.56;;;12.94;52.84
80482;BME280;69797;43.864;21.410;2024-01-25T11:01:08;100609.53;;;12.98;53.41
80482;BME280;69797;43.864;21.410;2024-01-25T11:03:42;100624.97;;;13.17;53.38
80482;BME280;69797;43.864;21.410;2024-01-25T11:06:11;100619.41;;;13.24;52.22
80482;BME280;69797;43.864;21.410;2024-01-25T11:08:39;100618.25;;;13.32;53.06
80482;BME280;69797;43.864;21.410;2024-01-25T11:11:15;100627.13;;;13.52;52.54
80482;BME280;69797;43.864;21.410;2024-01-25T11:13:43;100613.28;;;13.59;61.16
80482;BME280;69797;43.864;21.410;2024-01-25T11:16:15;100615.88;;;14.14;53.79
80482;BME280;69797;43.864;21.410;2024-01-25T11:18:55;100609.25;;;14.45;51.73
80482;BME280;69797;43.864;21.410;2024-01-25T11:21:28;100612.88;;;14.57;52.36
80482;BME280;69797;43.864;21.410;2024-01-25T11:24:02;100609.88;;;14.47;50.54
80482;BME280;69797;43.864;21.410;2024-01-25T11:26:32;100609.88;;;14.47;56.48
80482;BME280;69797;43.864;21.410;2024-01-25T11:28:59;100582.28;;;14.35;49.69
80482;BME280;69797;43.864;21.410;2024-01-25T11:31:28;100572.34;;;14.34;50.59
80482;BME280;69797;43.864;21.410;2024-01-25T11:33:59;100560.94;;;14.31;50.45
80482;BME280;69797;43.864;21.410;2024-01-25T11:36:28;100554.34;;;14.32;50.52
80482;BME280;69797;43.864;21.410;2024-01-25T11:38:55;100562.97;;;14.35;49.48
80482;BME280;69797;43.864;21.410;2024-01-25T11:41:24;100575.84;;;14.53;49.80
80482;BME280;69797;43.864;21.410;2024-01-25T11:43:51;100570.22;;;14.60;47.93
80482;BME280;69797;43.864;21.410;2024-01-25T11:46:18;100560.28;;;14.59;48.10
80482;BME280;69797;43.864;21.410;2024-01-25T11:48:45;100569.03;;;14.68;48.55
80482;BME280;69797;43.864;21.410;2024-01-25T11:51:13;100516.41;;;14.57;51.08
80482;BME280;69797;43.864;21.410;2024-01-25T11:53:40;100520.72;;;14.53;48.24
80482;BME280;69797;43.864;21.410;2024-01-25T11:56:10;100534.16;;;14.73;52.41
80482;BME280;69797;43.864;21.410;2024-01-25T11:58:38;100543.22;;;14.85;50.90
80482;BME280;69797;43.864;21.410;2024-01-25T12:01:08;100519.88;;;14.64;48.64
80482;BME280;69797;43.864;21.410;2024-01-25T12:03:37;100541.44;;;14.44;48.67
80482;BME280;69797;43.864;21.410;2024-01-25T12:06:05;100534.34;;;14.25;49.51
80482;BME280;69797;43.864;21.410;2024-01-25T12:08:32;100533.22;;;14.02;48.86
80482;BME280;69797;43.864;21.410;2024-01-25T12:11:10;100529.72;;;13.83;53.60
80482;BME280;69797;43.864;21.410;2024-01-25T12:13:42;100515.94;;;13.53;53.28
80482;BME280;69797;43.864;21.410;2024-01-25T12:16:10;100520.28;;;13.31;56.59
80482;BME280;69797;43.864;21.410;2024-01-25T12:18:38;100508.22;;;13.13;56.01
80482;BME280;69797;43.864;21.410;2024-01-25T12:21:05;100497.66;;;13.10;57.99
80482;BME280;69797;43.864;21.410;2024-01-25T12:23:37;100507.91;;;13.03;56.80
80482;BME280;69797;43.864;21.410;2024-01-25T12:26:09;100506.78;;;12.92;55.37
80482;BME280;69797;43.864;21.410;2024-01-25T12:28:39;100495.63;;;12.87;56.36
80482;BME280;69797;43.864;21.410;2024-01-25T12:31:06;100500.44;;;12.92;61.46
80482;BME280;69797;43.864;21.410;2024-01-25T12:33:34;100499.91;;;13.02;56.84
80482;BME280;69797;43.864;21.410;2024-01-25T12:36:03;100475.88;;;12.79;55.80
80482;BME280;69797;43.864;21.410;2024-01-25T12:38:30;100485.09;;;12.84;58.54
80482;BME280;69797;43.864;21.410;2024-01-25T12:41:00;100498.88;;;13.14;59.58
80482;BME280;69797;43.864;21.410;2024-01-25T12:43:29;100478.78;;;13.14;56.37
80482;BME280;69797;43.864;21.410;2024-01-25T12:45:58;100483.25;;;13.15;60.77
80482;BME280;69797;43.864;21.410;2024-01-25T12:48:42;100484.63;;;13.24;55.33